createdAt,value
2022-08-01T00:11:23.029Z,1.58
2022-08-01T00:15:30.478Z,1.83
2022-08-01T00:19:47.542Z,1.58
2022-08-01T00:24:17.762Z,1.65
2022-08-01T00:28:24.988Z,1.75
2022-08-01T00:32:32.232Z,1.42
2022-08-01T00:36:47.315Z,1.50
2022-08-01T00:45:35.494Z,1.58
2022-08-01T00:49:41.300Z,1.83
2022-08-01T00:53:54.267Z,1.90
2022-08-01T00:58:05.451Z,1.60
2022-08-01T01:07:00.518Z,2.03
2022-08-01T01:11:27.799Z,1.92
2022-08-01T01:15:50.590Z,1.90
2022-08-01T01:20:01.608Z,2.40
2022-08-01T01:24:41.315Z,2.28
2022-08-01T01:29:06.779Z,2.20
2022-08-01T01:43:33.380Z,2.00
2022-08-01T01:58:18.473Z,1.80
2022-08-01T02:03:01.509Z,2.08
2022-08-01T02:12:25.109Z,2.42
2022-08-01T02:16:41.002Z,2.10
2022-08-01T02:21:23.223Z,2.17
2022-08-01T02:30:34.671Z,2.47
2022-08-01T02:35:17.160Z,2.50
2022-08-01T02:49:20.432Z,2.22
2022-08-01T03:04:01.380Z,1.92
2022-08-01T03:12:39.069Z,2.33
2022-08-01T03:16:54.188Z,2.35
2022-08-01T03:21:15.092Z,2.05
2022-08-01T03:25:58.709Z,2.58
2022-08-01T03:39:39.021Z,2.50
2022-08-01T03:48:39.917Z,2.20
2022-08-01T03:53:11.844Z,2.40
2022-08-01T03:57:36.603Z,1.77
2022-08-01T04:02:11.858Z,1.85
2022-08-01T04:11:13.969Z,2.33
2022-08-01T04:19:47.943Z,2.33
2022-08-01T04:24:09.913Z,2.42
2022-08-01T04:28:29.332Z,2.13
2022-08-01T04:32:42.116Z,1.90
2022-08-01T04:37:30.889Z,2.13
2022-08-01T05:14:27.891Z,2.10
2022-08-01T05:24:12.787Z,2.83
2022-08-01T05:28:22.316Z,2.63
2022-08-01T05:32:36.468Z,2.05
2022-08-01T05:36:38.783Z,2.10
2022-08-01T05:40:40.527Z,1.70
2022-08-01T05:44:42.238Z,1.70
2022-08-01T05:48:43.718Z,1.90
2022-08-01T05:52:45.221Z,2.20
2022-08-01T05:56:46.663Z,1.92
2022-08-01T06:00:48.108Z,1.75
2022-08-01T06:04:59.933Z,1.48
2022-08-01T06:09:01.426Z,1.73
2022-08-01T06:13:04.312Z,1.50
2022-08-01T06:17:05.835Z,1.85
2022-08-01T06:21:07.512Z,1.50
2022-08-01T06:25:09.591Z,1.58
2022-08-01T06:29:38.348Z,1.60
2022-08-01T06:33:42.665Z,1.40
2022-08-01T06:37:48.620Z,1.45
2022-08-01T06:42:03.170Z,1.40
2022-08-01T06:46:30.506Z,1.02
2022-08-01T06:55:44.172Z,2.10
2022-08-01T07:00:04.024Z,0.90
2022-08-01T07:04:06.553Z,1.20
2022-08-01T07:08:46.696Z,1.30
2022-08-01T07:17:29.534Z,1.40
2022-08-01T07:21:40.479Z,0.90
2022-08-01T07:25:42.789Z,1.60
2022-08-01T07:44:28.209Z,2.10
2022-08-01T08:21:26.351Z,2.13
2022-08-01T08:25:48.437Z,2.13
2022-08-01T08:30:26.687Z,2.47
2022-08-01T08:34:29.303Z,2.15
2022-08-01T08:38:30.842Z,2.00
2022-08-01T08:42:32.441Z,2.05
2022-08-01T08:51:16.218Z,2.10
2022-08-01T09:00:25.578Z,2.63
2022-08-01T09:14:21.721Z,2.60
2022-08-01T09:23:25.255Z,3.17
2022-08-01T09:27:51.969Z,2.75
2022-08-01T09:31:56.030Z,3.53
2022-08-01T09:36:00.543Z,3.00
2022-08-01T09:40:10.933Z,3.13
2022-08-01T09:44:42.443Z,4.10
2022-08-01T09:49:01.902Z,2.97
2022-08-01T09:53:06.383Z,4.15
2022-08-01T09:57:38.406Z,3.88
2022-08-01T10:01:54.246Z,4.38
2022-08-01T10:06:07.737Z,4.75
2022-08-01T10:10:33.760Z,3.78
2022-08-01T10:14:40.204Z,3.65
2022-08-01T10:18:48.561Z,3.15
2022-08-01T10:22:51.266Z,4.57
2022-08-01T10:26:58.071Z,4.57
2022-08-01T10:30:59.877Z,4.72
2022-08-01T10:35:06.622Z,8.75
2022-08-01T10:39:14.436Z,4.53
2022-08-01T10:43:22.382Z,4.32
2022-08-01T10:47:50.979Z,3.83
2022-08-01T10:51:54.729Z,2.67
2022-08-01T10:56:04.334Z,3.50
2022-08-01T11:00:06.296Z,3.38
2022-08-01T11:04:18.481Z,3.50
2022-08-01T11:08:24.168Z,2.22
2022-08-01T11:12:41.627Z,2.63
2022-08-01T11:16:48.265Z,3.40
2022-08-01T11:21:57.381Z,3.03
2022-08-01T11:26:03.458Z,2.42
2022-08-01T11:30:49.880Z,3.03
2022-08-01T11:49:59.846Z,2.63
2022-08-01T11:54:15.797Z,3.05
2022-08-01T11:58:54.283Z,2.38
2022-08-01T12:18:55.941Z,2.00
2022-08-01T12:23:19.367Z,1.85
2022-08-01T12:27:45.272Z,2.58
2022-08-01T13:41:32.664Z,1.48
2022-08-01T13:55:23.503Z,2.42
2022-08-01T13:59:25.337Z,1.70
2022-08-01T14:03:33.603Z,1.70
2022-08-01T14:07:36.168Z,2.13
2022-08-01T14:11:39.884Z,1.88
2022-08-01T14:15:50.316Z,2.05
2022-08-01T14:19:52.153Z,2.38
2022-08-01T14:23:53.771Z,2.13
2022-08-01T14:27:55.718Z,1.67
2022-08-01T14:31:57.184Z,1.90
2022-08-01T14:36:06.115Z,1.77
2022-08-01T14:40:20.891Z,1.48
2022-08-01T14:44:22.421Z,1.88
2022-08-01T14:48:24.044Z,1.80
2022-08-01T14:52:25.514Z,1.67
2022-08-01T14:56:31.147Z,1.60
2022-08-01T15:00:32.892Z,2.15
2022-08-01T15:04:34.490Z,1.65
2022-08-01T15:08:36.015Z,1.80
2022-08-01T15:12:50.415Z,1.60
2022-08-01T15:16:52.350Z,1.48
2022-08-01T15:20:54.030Z,1.48
2022-08-01T15:24:59.023Z,1.95
2022-08-01T15:29:00.485Z,1.60
2022-08-01T15:33:02.057Z,1.55
2022-08-01T15:37:04.470Z,1.73
2022-08-01T15:41:05.927Z,1.60
2022-08-01T15:45:10.693Z,1.45
2022-08-01T15:49:15.585Z,1.80
2022-08-01T15:53:18.202Z,1.45
2022-08-01T15:57:42.153Z,1.55
2022-08-01T16:16:26.965Z,1.25
2022-08-01T16:20:28.415Z,1.27
2022-08-01T16:24:31.009Z,1.23
2022-08-01T16:28:35.774Z,1.23
2022-08-01T16:32:40.271Z,1.17
2022-08-01T16:36:44.360Z,1.42
2022-08-01T16:40:48.081Z,1.30
2022-08-01T16:44:49.806Z,0.90
2022-08-01T16:48:51.560Z,1.00
2022-08-01T16:52:53.059Z,0.93
2022-08-01T17:02:26.979Z,0.93
2022-08-01T17:11:01.798Z,1.20
2022-08-01T17:15:15.877Z,1.05
2022-08-01T17:19:35.886Z,1.15
2022-08-01T17:23:43.562Z,1.10
2022-08-01T17:28:10.490Z,0.98
2022-08-01T17:41:55.012Z,0.90
2022-08-01T17:46:52.487Z,1.00
2022-08-01T17:51:05.533Z,0.93
2022-08-01T17:55:55.435Z,1.10
2022-08-01T17:59:57.083Z,1.25
2022-08-01T18:08:46.990Z,0.90
2022-08-01T18:12:54.440Z,0.80
2022-08-01T18:17:01.352Z,1.23
2022-08-01T18:21:09.532Z,1.08
2022-08-01T18:25:30.070Z,0.90
2022-08-01T18:34:22.474Z,0.70
2022-08-01T18:39:40.912Z,0.98
2022-08-01T18:48:46.929Z,0.93
2022-08-01T18:53:05.351Z,0.90
2022-08-01T18:57:22.845Z,0.98
2022-08-01T19:01:30.360Z,1.00
2022-08-01T19:05:35.040Z,1.02
2022-08-01T19:09:37.782Z,0.90
2022-08-01T19:13:40.019Z,1.15
2022-08-01T19:17:41.569Z,0.98
2022-08-01T19:21:45.056Z,1.30
2022-08-01T19:25:55.537Z,1.10
2022-08-01T19:29:59.447Z,1.60
2022-08-01T19:34:01.322Z,1.20
2022-08-01T19:38:03.105Z,2.00
2022-08-01T19:42:05.534Z,1.88
2022-08-01T19:46:07.599Z,2.25
2022-08-01T19:50:18.925Z,1.80
2022-08-01T19:54:21.862Z,1.75
2022-08-01T19:58:27.501Z,1.75
2022-08-01T20:02:29.863Z,2.13
2022-08-01T20:06:31.786Z,1.80
2022-08-01T20:10:34.173Z,1.88
2022-08-01T20:14:35.873Z,1.73
2022-08-01T20:18:41.263Z,1.73
2022-08-01T20:22:56.983Z,1.70
2022-08-01T20:27:05.951Z,2.35
2022-08-01T20:31:16.739Z,1.75
2022-08-01T20:35:52.111Z,2.05
2022-08-01T20:39:45.493Z,1.92
2022-08-01T20:43:51.529Z,1.65
2022-08-01T20:47:57.860Z,1.50
2022-08-01T20:52:03.877Z,1.80
2022-08-01T20:56:30.412Z,1.95
2022-08-01T21:00:38.567Z,1.55
2022-08-01T21:05:12.111Z,1.60
2022-08-01T21:14:11.495Z,2.10
2022-08-01T21:18:22.986Z,1.65
2022-08-01T21:23:28.697Z,2.00
2022-08-01T21:27:53.686Z,2.70
2022-08-01T21:41:18.723Z,1.80
2022-08-01T21:45:58.006Z,2.17
2022-08-01T21:50:10.865Z,1.65
2022-08-01T21:54:57.285Z,1.75
2022-08-01T21:59:16.263Z,2.30
2022-08-01T22:03:49.207Z,2.55
2022-08-01T22:08:10.389Z,2.30
2022-08-01T22:16:54.970Z,4.47
2022-08-01T22:31:10.945Z,1.80
2022-08-01T22:35:52.810Z,2.50
2022-08-01T22:45:12.317Z,2.45
2022-08-01T22:50:04.760Z,1.73
2022-08-01T22:54:46.651Z,2.10
2022-08-01T22:59:09.682Z,2.47
2022-08-01T23:04:09.398Z,1.95
2022-08-01T23:23:42.365Z,2.67
2022-08-01T23:33:11.750Z,2.47
2022-08-01T23:47:24.128Z,2.35
2022-08-01T23:57:00.095Z,2.72
